ADDS METAR Data INFO
IDs: Format: Raw Decoded Include TAF

Data at: 1635 UTC 22 Jul 2017

KCRS 221553Z AUTO 21006KT 10SM CLR 32/22 A2999 RMK AO2 SLP150 T03220222 $
KCRS 221453Z AUTO 19009KT 10SM CLR 30/23 A3000 RMK AO2 SLP152 T03000233 51012 $
KCRS 221353Z AUTO 19009KT 10SM CLR 28/24 A3000 RMK AO2 SLP151 T02780239 $
KCRS 221253Z AUTO 18007KT 10SM CLR 26/24 A2999 RMK AO2 SLP148 T02610239 $
KCRS 221153Z AUTO 17006KT 10SM CLR 24/23 A2996 RMK AO2 SLP140 T02440233 10278 20244 53004 $
KCRS 221053Z AUTO 18005KT 10SM CLR 24/23 A2995 RMK AO2 SLP137 T02440228 $
KCRS 220953Z AUTO 18006KT 10SM CLR 25/23 A2994 RMK AO2 SLP133 T02500233 $
KCRS 220853Z AUTO 18006KT 10SM CLR 26/23 A2995 RMK AO2 SLP135 T02560233 56006 $
KCRS 220753Z AUTO 17006KT 10SM CLR 27/23 A2996 RMK AO2 SLP138 T02670233 $
KCRS 220653Z AUTO 18006KT 10SM CLR 27/23 A2996 RMK AO2 SLP137 T02720233 $
KCRS 220553Z AUTO 17008KT 10SM CLR 28/23 A2997 RMK AO2 SLP141 T02780233 10350 20278 403670250 50005 $
KCRS 220453Z AUTO 15010KT 10SM CLR 29/23 A2997 RMK AO2 SLP141 T02890228 $
KCRS 220253Z AUTO 13007KT 10SM CLR 30/23 A2995 RMK AO2 SLP137 T03000228 $
KCRS 220153Z AUTO 13005KT 10SM CLR 31/23 A2993 RMK AO2 SLP130 T03060228
KCRS 212053Z AUTO 12007KT 10SM CLR 36/20 A2996 RMK AO2 SLP140 T03610200 58020
KCRS 211953Z AUTO 14007G14KT 10SM FEW055 36/21 A2999 RMK AO2 SLP148 T03610206
KCRS 211853Z AUTO 16010KT 10SM FEW060 36/21 A3001 RMK AO2 SLP156 T03560211
KCRS 211753Z AUTO VRB05KT 10SM CLR 35/22 A3003 RMK AO2 SLP160 T03500217 10350 20250 58011
KCRS 211653Z AUTO 18006KT 10SM CLR 33/22 A3004 RMK AO2 SLP166 T03330217
KCRS 211553Z AUTO 19009KT 10SM CLR 32/22 A3005 RMK AO2 SLP171 T03220217
KCRS 211453Z AUTO 21006KT 10SM CLR 31/23 A3006 RMK AO2 SLP172 T03060228 50006
KCRS 211353Z AUTO 19007KT 10SM CLR 28/24 A3006 RMK AO2 SLP173 T02830239
KCRS 211253Z AUTO 18008KT 10SM CLR 27/24 A3005 RMK AO2 SLP170 T02670239
KCRS 211153Z AUTO 18006KT 10SM CLR 25/24 A3004 RMK AO2 SLP166 T02500239 10283 20250 53007
KCRS 211053Z AUTO 17006KT 10SM CLR 26/24 A3002 RMK AO2 SLP161 T02560239
KCRS 210953Z AUTO 18005KT 10SM CLR 26/23 A3001 RMK AO2 SLP156 T02560233
KCRS 210853Z AUTO 18005KT 10SM CLR 26/23 A3002 RMK AO2 SLP158 T02560233 58002
KCRS 210753Z AUTO 19006KT 10SM CLR 27/23 A3002 RMK AO2 SLP160 T02670233
KCRS 210653Z AUTO 17008KT 10SM CLR 28/23 A3003 RMK AO2 SLP162 T02780233
KCRS 210553Z AUTO 16009KT 10SM CLR 28/23 A3002 RMK AO2 SLP160 T02830233 10344 20283 403670250 50003
KCRS 210453Z AUTO 16006KT 10SM CLR 28/23 A3003 RMK AO2 SLP163 T02830228